createdAt,value
2022-12-04T00:01:21.555Z,103064.06
2022-12-04T00:03:52.649Z,103054.22
2022-12-04T00:06:21.688Z,103052.41
2022-12-04T00:08:50.211Z,103052.41
2022-12-04T00:11:22.459Z,103043.38
2022-12-04T00:13:50.574Z,103045.25
2022-12-04T00:16:21.077Z,103048.78
2022-12-04T00:18:49.125Z,103045.25
2022-12-04T00:21:18.303Z,103044.31
2022-12-04T00:23:47.031Z,103023.59
2022-12-04T00:26:16.884Z,103052.41
2022-12-04T00:28:46.800Z,102985.97
2022-12-04T00:31:16.919Z,103042.41
2022-12-04T00:33:45.136Z,103027.59
2022-12-04T00:36:14.884Z,103037.03
2022-12-04T00:38:44.594Z,103034.44
2022-12-04T00:41:13.830Z,103037.03
2022-12-04T00:43:42.225Z,103037.03
2022-12-04T00:46:11.567Z,103042.34
2022-12-04T00:48:40.119Z,103037.91
2022-12-04T00:51:10.593Z,103029.72
2022-12-04T00:53:39.439Z,103029.72
2022-12-04T00:56:09.103Z,103032.41
2022-12-04T00:58:37.309Z,103028.88
2022-12-04T01:01:08.394Z,103037.81
2022-12-04T01:03:38.019Z,103031.50
2022-12-04T01:06:07.388Z,103026.97
2022-12-04T01:08:36.075Z,103035.06
2022-12-04T01:11:06.902Z,103020.09
2022-12-04T01:13:34.847Z,103036.78
2022-12-04T01:16:02.774Z,103035.94
2022-12-04T01:18:30.759Z,103034.03
2022-12-04T01:20:59.998Z,103034.03
2022-12-04T01:23:27.897Z,103028.69
2022-12-04T01:25:57.984Z,103033.06
2022-12-04T01:28:26.592Z,103033.06
2022-12-04T01:31:02.696Z,103031.16
2022-12-04T01:33:31.910Z,103027.66
2022-12-04T01:36:03.076Z,103029.41
2022-12-04T01:38:31.259Z,102997.91
2022-12-04T01:40:59.653Z,103022.28
2022-12-04T01:43:30.495Z,103027.50
2022-12-04T01:45:59.462Z,103029.25
2022-12-04T01:48:31.842Z,103011.22
2022-12-04T01:51:05.325Z,103031.94
2022-12-04T01:53:34.916Z,103026.56
2022-12-04T01:56:04.023Z,103030.97
2022-12-04T01:58:36.941Z,103021.09
2022-12-04T02:01:09.050Z,103013.97
2022-12-04T02:03:37.851Z,103021.19
2022-12-04T02:06:07.590Z,103013.00
2022-12-04T02:08:37.517Z,103019.28
2022-12-04T02:11:19.789Z,103000.72
2022-12-04T02:13:58.000Z,103003.03
2022-12-04T02:16:34.824Z,103009.38
2022-12-04T02:19:14.561Z,103011.97
2022-12-04T02:21:48.869Z,102990.31
2022-12-04T02:24:27.816Z,103019.09
2022-12-04T02:27:00.722Z,102988.50
2022-12-04T02:29:38.291Z,103016.41
2022-12-04T02:32:14.085Z,103022.59
2022-12-04T02:34:47.282Z,103018.16
2022-12-04T02:37:19.715Z,103000.03
2022-12-04T02:39:55.284Z,103015.38
2022-12-04T02:42:32.686Z,103012.78
2022-12-04T02:45:07.566Z,103013.63
2022-12-04T02:47:39.089Z,103011.75
2022-12-04T02:50:11.167Z,103008.09
2022-12-04T02:52:43.127Z,103011.75
2022-12-04T02:55:15.987Z,102996.06
2022-12-04T02:57:49.267Z,103016.16
2022-12-04T03:00:19.976Z,103024.22
2022-12-04T03:02:54.428Z,103017.94
2022-12-04T03:05:27.779Z,103013.47
2022-12-04T03:07:59.701Z,103015.25
2022-12-04T03:10:31.505Z,103020.66
2022-12-04T03:13:04.449Z,103025.13
2022-12-04T03:15:38.633Z,103021.56
2022-12-04T03:18:13.297Z,103026.91
2022-12-04T03:20:43.695Z,103014.75
2022-12-04T03:23:17.435Z,103029.50
2022-12-04T03:25:52.619Z,103025.94
2022-12-04T03:28:27.068Z,103029.50
2022-12-04T03:31:02.244Z,103027.75
2022-12-04T03:33:36.638Z,103023.25
2022-12-04T03:36:11.184Z,103021.44
2022-12-04T03:38:45.447Z,103025.00
2022-12-04T03:41:19.903Z,103023.09
2022-12-04T03:43:53.153Z,103023.97
2022-12-04T03:46:29.198Z,103023.97
2022-12-04T03:49:03.876Z,103012.84
2022-12-04T03:51:37.834Z,103027.53
2022-12-04T03:54:13.398Z,103023.09
2022-12-04T03:56:44.755Z,103023.97
2022-12-04T03:59:19.097Z,103031.16
2022-12-04T04:01:50.589Z,103029.34
2022-12-04T04:04:22.378Z,103018.56
2022-12-04T04:06:56.451Z,103021.16
2022-12-04T04:09:27.546Z,103022.03
2022-12-04T04:12:01.759Z,103019.44
2022-12-04T04:14:52.435Z,103015.78
2022-12-04T04:17:44.156Z,103021.25
2022-12-04T04:20:34.736Z,103025.72
2022-12-04T04:23:22.135Z,103027.69
2022-12-04T04:25:52.852Z,103021.44
2022-12-04T04:28:31.877Z,103031.00
2022-12-04T04:31:07.592Z,103023.88
2022-12-04T04:33:46.583Z,103019.44
2022-12-04T04:36:22.672Z,103018.41
2022-12-04T04:39:01.190Z,102963.69
2022-12-04T04:41:36.458Z,103024.69
2022-12-04T04:44:13.108Z,102997.66
2022-12-04T04:46:47.326Z,103021.97
2022-12-04T04:49:18.443Z,103021.97
2022-12-04T04:51:47.262Z,103023.81
2022-12-04T04:54:17.796Z,103021.09
2022-12-04T04:56:47.405Z,103025.53
2022-12-04T04:59:16.355Z,103020.13
2022-12-04T05:01:46.878Z,103024.59
2022-12-04T05:04:16.593Z,103025.47
2022-12-04T05:06:44.550Z,103028.22
2022-12-04T05:09:12.516Z,103022.81
2022-12-04T05:11:40.416Z,103022.81
2022-12-04T05:14:09.620Z,103026.41
2022-12-04T05:16:37.658Z,103021.97
2022-12-04T05:19:23.170Z,103021.97
2022-12-04T05:21:52.456Z,103022.03
2022-12-04T05:24:20.460Z,103015.00
2022-12-04T05:26:48.329Z,103021.97
2022-12-04T05:29:16.196Z,103017.44
2022-12-04T05:31:44.375Z,103028.22
2022-12-04T05:34:12.442Z,103041.63
2022-12-04T05:36:40.524Z,103036.81
2022-12-04T05:39:09.830Z,103043.91
2022-12-04T05:41:37.694Z,103041.59
2022-12-04T05:44:05.608Z,103051.75
2022-12-04T05:46:33.488Z,103045.88
2022-12-04T05:49:01.572Z,103039.09
2022-12-04T05:51:29.431Z,103040.84
2022-12-04T05:53:57.443Z,103038.38
2022-12-04T05:56:26.695Z,103041.31
2022-12-04T05:58:54.651Z,103037.09
2022-12-04T06:01:24.766Z,103037.25
2022-12-04T06:03:52.764Z,103034.91
2022-12-04T06:06:23.128Z,103036.00
2022-12-04T06:08:51.442Z,103041.72
2022-12-04T06:11:21.794Z,103036.47
2022-12-04T06:13:51.398Z,103047.31
2022-12-04T06:16:21.729Z,103044.78
2022-12-04T06:18:54.487Z,103033.31
2022-12-04T06:21:23.242Z,103046.00
2022-12-04T06:23:52.098Z,103050.59
2022-12-04T06:26:20.768Z,103043.78
2022-12-04T06:28:53.508Z,103049.16
2022-12-04T06:31:21.568Z,103052.88
2022-12-04T06:33:49.896Z,103063.69
2022-12-04T06:36:21.102Z,103051.25
2022-12-04T06:38:49.652Z,103059.41
2022-12-04T06:41:20.736Z,103048.72
2022-12-04T06:43:50.689Z,103057.75
2022-12-04T06:46:22.035Z,103054.19
2022-12-04T06:48:50.115Z,103058.84
2022-12-04T06:51:19.879Z,103058.13
2022-12-04T06:53:48.121Z,103068.00
2022-12-04T06:56:19.675Z,103066.19
2022-12-04T06:58:49.049Z,103041.03
2022-12-04T07:01:19.326Z,103068.16
2022-12-04T07:03:51.528Z,103062.41
2022-12-04T07:06:21.951Z,103066.63
2022-12-04T07:08:53.549Z,103074.69
2022-12-04T07:11:22.504Z,103060.69
2022-12-04T07:13:51.249Z,103066.78
2022-12-04T07:16:21.062Z,103072.25
2022-12-04T07:18:53.337Z,103074.84
2022-12-04T07:21:22.673Z,103042.56
2022-12-04T07:23:51.440Z,103077.66
2022-12-04T07:26:19.865Z,103075.84
2022-12-04T07:28:48.489Z,103076.81
2022-12-04T07:31:18.046Z,103076.81
2022-12-04T07:33:46.911Z,103073.31
2022-12-04T07:36:17.612Z,103077.84
2022-12-04T07:38:45.543Z,103072.75
2022-12-04T07:41:14.526Z,103085.91
2022-12-04T07:43:43.368Z,103080.59
2022-12-04T07:46:14.094Z,103085.09
2022-12-04T07:48:42.362Z,103078.13
2022-12-04T07:51:11.981Z,103072.75
2022-12-04T07:53:42.023Z,103079.88
2022-12-04T07:56:12.092Z,103077.19
2022-12-04T07:58:40.631Z,103076.31
2022-12-04T08:01:10.964Z,103076.38
2022-12-04T08:03:45.248Z,103075.56
2022-12-04T08:06:15.396Z,103080.06
2022-12-04T08:08:44.756Z,103084.53
2022-12-04T08:11:15.077Z,103089.03
2022-12-04T08:13:43.048Z,103084.66
2022-12-04T08:16:12.819Z,103096.34
2022-12-04T08:18:41.575Z,103083.78
2022-12-04T08:21:11.581Z,103081.19
2022-12-04T08:23:41.442Z,103089.09
2022-12-04T08:26:11.795Z,103091.84
2022-12-04T08:28:41.771Z,103089.25
2022-12-04T08:31:12.736Z,103089.28
2022-12-04T08:33:41.499Z,103086.69
2022-12-04T08:36:11.617Z,103096.50
2022-12-04T08:38:39.977Z,103094.91
2022-12-04T08:41:12.302Z,103101.94
2022-12-04T08:43:40.276Z,103096.56
2022-12-04T08:46:11.591Z,103086.13
2022-12-04T08:48:40.102Z,103098.38
2022-12-04T08:51:09.163Z,103101.94
2022-12-04T08:53:38.163Z,103074.00
2022-12-04T08:56:06.675Z,103100.22
2022-12-04T08:58:35.969Z,103105.59
2022-12-04T09:01:07.935Z,103110.97
2022-12-04T09:03:36.331Z,103104.72
2022-12-04T09:06:06.114Z,103111.81
2022-12-04T09:08:34.563Z,103108.28
2022-12-04T09:11:06.571Z,103105.59
2022-12-04T09:13:36.599Z,103105.59
2022-12-04T09:16:06.900Z,103105.66
2022-12-04T09:18:35.546Z,103102.06
2022-12-04T09:21:05.926Z,103102.03
2022-12-04T09:23:35.093Z,103105.44
2022-12-04T09:26:03.310Z,103109.97
2022-12-04T09:28:31.220Z,103109.13
2022-12-04T09:31:02.255Z,103108.19
2022-12-04T09:33:31.027Z,103104.63
2022-12-04T09:36:00.298Z,103097.66
2022-12-04T09:38:28.684Z,103107.41
2022-12-04T09:41:04.232Z,103106.44
2022-12-04T09:43:37.587Z,103110.16
2022-12-04T09:46:13.367Z,103110.09
2022-12-04T09:48:44.238Z,103109.31
2022-12-04T09:51:18.734Z,103109.31
2022-12-04T09:53:50.728Z,103103.19
2022-12-04T09:56:21.156Z,103104.09
2022-12-04T09:58:53.454Z,103096.00
2022-12-04T10:01:25.896Z,103096.88
2022-12-04T10:03:58.693Z,103096.00
2022-12-04T10:06:36.418Z,103087.97
2022-12-04T10:09:12.155Z,103097.72
2022-12-04T10:11:49.724Z,103097.72
2022-12-04T10:14:34.339Z,103099.56
2022-12-04T10:17:36.716Z,103089.81
2022-12-04T10:20:18.106Z,103059.22
2022-12-04T10:22:59.573Z,103090.72
2022-12-04T10:25:29.968Z,103093.47
2022-12-04T10:28:04.333Z,103092.50
2022-12-04T10:30:35.053Z,103091.75
2022-12-04T10:33:12.490Z,103087.25
2022-12-04T10:35:44.728Z,103087.25
2022-12-04T10:38:31.277Z,103086.25
2022-12-04T10:41:03.733Z,103087.16
2022-12-04T10:43:41.195Z,103079.97
2022-12-04T10:46:14.168Z,103080.75
2022-12-04T10:48:48.304Z,103084.13
2022-12-04T10:51:17.185Z,103079.88
2022-12-04T10:53:49.509Z,103082.56
2022-12-04T10:56:19.482Z,103079.97
2022-12-04T10:58:57.504Z,103086.97
2022-12-04T11:01:26.142Z,103085.25
2022-12-04T11:04:04.019Z,103089.59
2022-12-04T11:06:32.452Z,103083.50
2022-12-04T11:09:01.157Z,103081.59
2022-12-04T11:11:31.996Z,103084.22
2022-12-04T11:14:05.241Z,103083.22
2022-12-04T11:16:42.119Z,103087.56
2022-12-04T11:19:26.207Z,103076.16
2022-12-04T11:21:56.703Z,103088.44
2022-12-04T11:24:27.382Z,103085.69
2022-12-04T11:26:56.626Z,103075.00
2022-12-04T11:29:36.740Z,103071.34
2022-12-04T11:32:08.166Z,103069.53
2022-12-04T11:34:40.819Z,103080.28
2022-12-04T11:37:21.008Z,103050.63
2022-12-04T11:39:49.484Z,103074.25
2022-12-04T11:42:20.180Z,103059.47
2022-12-04T11:44:54.667Z,103071.44
2022-12-04T11:47:26.168Z,103075.06
2022-12-04T11:50:11.538Z,103070.56
2022-12-04T11:52:52.831Z,103081.41
2022-12-04T11:55:29.373Z,103078.72
2022-12-04T11:58:14.703Z,103066.13
2022-12-04T12:00:51.060Z,103056.56
2022-12-04T12:03:27.627Z,103067.00
2022-12-04T12:06:17.067Z,103067.75
2022-12-04T12:08:59.038Z,103065.09
2022-12-04T12:11:33.318Z,103056.97
2022-12-04T12:14:10.552Z,103056.91
2022-12-04T12:16:57.518Z,103066.78
2022-12-04T12:19:40.556Z,103059.66
2022-12-04T12:22:21.832Z,103055.16
2022-12-04T12:24:56.852Z,103057.91
2022-12-04T12:27:38.618Z,103037.56
2022-12-04T12:30:10.645Z,103049.06
2022-12-04T12:33:00.920Z,103045.44
2022-12-04T12:35:34.350Z,103045.50
2022-12-04T12:38:07.268Z,103037.66
2022-12-04T12:40:38.382Z,103042.00
2022-12-04T12:43:12.306Z,103047.38
2022-12-04T12:45:47.046Z,103050.16
2022-12-04T12:48:27.426Z,103053.69
2022-12-04T12:51:22.175Z,103052.09
2022-12-04T12:53:53.607Z,103056.69
2022-12-04T12:56:31.063Z,103056.72
2022-12-04T12:59:02.902Z,103065.75
2022-12-04T13:01:41.303Z,103063.25
2022-12-04T13:04:14.280Z,103073.84
2022-12-04T13:06:46.647Z,103064.06
2022-12-04T13:09:25.480Z,103045.31
2022-12-04T13:11:59.634Z,103059.63
2022-12-04T13:14:27.646Z,103058.75
2022-12-04T13:16:59.983Z,103054.25
2022-12-04T13:19:32.195Z,103046.19
2022-12-04T13:22:13.761Z,103039.94
2022-12-04T13:25:02.516Z,103054.34
2022-12-04T13:27:41.637Z,103052.66
2022-12-04T13:30:17.111Z,103052.56
2022-12-04T13:33:11.445Z,103059.75
2022-12-04T13:36:03.323Z,103050.91
2022-12-04T13:38:42.411Z,103050.91
2022-12-04T13:41:16.866Z,103058.03
2022-12-04T13:43:49.642Z,103053.50
2022-12-04T13:46:29.697Z,103041.38
2022-12-04T13:49:09.694Z,103065.28
2022-12-04T13:51:40.129Z,103057.22
2022-12-04T13:54:27.100Z,103065.28
2022-12-04T13:56:58.169Z,103047.13
2022-12-04T13:59:37.106Z,103064.47
2022-12-04T14:02:29.316Z,103064.56
2022-12-04T14:05:00.350Z,103060.13
2022-12-04T14:07:31.959Z,103060.19
2022-12-04T14:10:04.722Z,103055.09
2022-12-04T14:12:37.632Z,103058.44
2022-12-04T14:15:08.436Z,103057.50
2022-12-04T14:17:38.439Z,103058.53
2022-12-04T14:20:10.259Z,103063.91
2022-12-04T14:22:44.163Z,103064.75
2022-12-04T14:25:36.552Z,103071.09
2022-12-04T14:28:27.593Z,103081.97
2022-12-04T14:31:06.543Z,103078.47
2022-12-04T14:33:40.596Z,103073.25
2022-12-04T14:36:12.494Z,103073.28
2022-12-04T14:38:41.101Z,103080.56
2022-12-04T14:41:09.037Z,103080.63
2022-12-04T14:43:40.887Z,103084.13
2022-12-04T14:46:16.735Z,103075.31
2022-12-04T14:48:52.215Z,103077.00
2022-12-04T14:51:26.411Z,103077.94
2022-12-04T14:54:04.136Z,103078.75
2022-12-04T14:56:48.532Z,103079.53
2022-12-04T14:59:19.977Z,103082.22
2022-12-04T15:01:50.559Z,103077.53
2022-12-04T15:04:24.761Z,103049.47
2022-12-04T15:06:59.893Z,103074.56
2022-12-04T15:09:46.042Z,103080.72
2022-12-04T15:12:37.057Z,103080.72
2022-12-04T15:15:14.991Z,103081.56
2022-12-04T15:17:43.003Z,103077.16
2022-12-04T15:20:15.623Z,103056.25
2022-12-04T15:22:43.905Z,103082.41
2022-12-04T15:25:21.172Z,103060.59
2022-12-04T15:27:50.802Z,103087.66
2022-12-04T15:30:23.723Z,103087.59
2022-12-04T15:32:54.294Z,103086.78
2022-12-04T15:35:27.114Z,103087.66
2022-12-04T15:37:55.981Z,103086.78
2022-12-04T15:40:27.037Z,103093.91
2022-12-04T15:42:55.771Z,103088.53
2022-12-04T15:45:31.938Z,103087.50
2022-12-04T15:47:59.960Z,103076.00
2022-12-04T15:50:31.174Z,103085.63
2022-12-04T15:53:03.696Z,103087.28
2022-12-04T15:55:37.712Z,103082.78
2022-12-04T15:58:08.809Z,103073.94
2022-12-04T16:00:40.300Z,103078.34
2022-12-04T16:03:24.305Z,103082.94
2022-12-04T16:06:04.055Z,103089.28
2022-12-04T16:08:34.353Z,103077.78
2022-12-04T16:11:04.728Z,103086.72
2022-12-04T16:13:34.693Z,103095.66
2022-12-04T16:16:07.809Z,103092.97
2022-12-04T16:18:36.098Z,103100.16
2022-12-04T16:21:03.991Z,103094.78
2022-12-04T16:23:33.569Z,103096.44
2022-12-04T16:26:01.476Z,103092.97
2022-12-04T16:28:29.486Z,103099.28
2022-12-04T16:30:57.525Z,103098.34
2022-12-04T16:33:26.913Z,103104.66
2022-12-04T16:35:54.862Z,103108.25
2022-12-04T16:38:22.759Z,103115.47
2022-12-04T16:40:50.667Z,103115.53
2022-12-04T16:43:18.951Z,103095.00
2022-12-04T16:45:48.925Z,103103.91
2022-12-04T16:48:16.985Z,103105.78
2022-12-04T16:50:46.849Z,103104.00
2022-12-04T16:53:17.944Z,103105.78
2022-12-04T16:55:48.088Z,103107.59
2022-12-04T16:58:17.138Z,103111.19
2022-12-04T17:00:50.782Z,103096.19
2022-12-04T17:03:21.775Z,103098.53
2022-12-04T17:05:51.545Z,103107.47
2022-12-04T17:08:19.903Z,103111.91
2022-12-04T17:10:47.912Z,103102.09
2022-12-04T17:13:17.841Z,103096.66
2022-12-04T17:15:45.741Z,103099.34
2022-12-04T17:18:19.252Z,103103.91
2022-12-04T17:20:50.571Z,103102.19
2022-12-04T17:23:18.492Z,103107.69
2022-12-04T17:25:46.367Z,103104.22
2022-12-04T17:28:14.427Z,103106.00
2022-12-04T17:30:45.930Z,103104.22
2022-12-04T17:33:13.942Z,103108.69
2022-12-04T17:35:43.574Z,103103.31
2022-12-04T17:38:13.017Z,103105.06
2022-12-04T17:40:40.923Z,103101.56
2022-12-04T17:43:08.883Z,103105.13
2022-12-04T17:45:36.931Z,103106.00
2022-12-04T17:48:05.043Z,103087.06
2022-12-04T17:50:32.952Z,103126.56
2022-12-04T17:53:00.860Z,103121.19
2022-12-04T17:55:30.120Z,103118.44
2022-12-04T17:57:58.084Z,103118.50
2022-12-04T18:00:26.203Z,103114.88
2022-12-04T18:02:54.146Z,103114.00
2022-12-04T18:05:22.360Z,103117.56
2022-12-04T18:07:50.369Z,103114.88
2022-12-04T18:10:18.483Z,103111.31
2022-12-04T18:12:47.824Z,103111.38
2022-12-04T18:15:16.278Z,103110.38
2022-12-04T18:17:44.318Z,103106.81
2022-12-04T18:20:12.832Z,103109.50
2022-12-04T18:22:40.693Z,103108.56
2022-12-04T18:25:09.522Z,103108.56
2022-12-04T18:27:41.656Z,103108.47
2022-12-04T18:30:12.004Z,103102.22
2022-12-04T18:32:39.959Z,103107.69
2022-12-04T18:35:08.484Z,103116.63
2022-12-04T18:37:36.416Z,103109.50
2022-12-04T18:40:07.036Z,103106.81
2022-12-04T18:42:35.256Z,103097.88
2022-12-04T18:45:03.234Z,103106.69
2022-12-04T18:47:32.500Z,103104.91
2022-12-04T18:50:00.790Z,103106.69
2022-12-04T18:52:28.747Z,103108.44
2022-12-04T18:54:56.660Z,103113.72
2022-12-04T18:57:24.582Z,103110.09
2022-12-04T18:59:52.658Z,103105.66
2022-12-04T19:02:20.694Z,103101.16
2022-12-04T19:04:50.007Z,103101.09
2022-12-04T19:07:18.762Z,103101.97
2022-12-04T19:10:10.369Z,103107.34
2022-12-04T19:12:34.839Z,103106.59
2022-12-04T19:15:02.844Z,103090.09
2022-12-04T19:17:30.993Z,103103.91
2022-12-04T19:20:02.427Z,103105.66
2022-12-04T19:22:31.154Z,103102.84
2022-12-04T19:24:59.105Z,103100.16
2022-12-04T19:27:27.958Z,103102.84
2022-12-04T19:29:57.218Z,103106.41
2022-12-04T19:32:25.705Z,103106.41
2022-12-04T19:34:55.723Z,103105.53
2022-12-04T19:37:25.090Z,103109.88
2022-12-04T19:39:55.620Z,103105.41
2022-12-04T19:42:26.607Z,103115.19
2022-12-04T19:44:56.549Z,103108.88
2022-12-04T19:47:24.868Z,103113.47
2022-12-04T19:49:52.960Z,103120.50
2022-12-04T19:52:20.878Z,103116.84
2022-12-04T19:54:50.524Z,103119.53
2022-12-04T19:57:18.708Z,103115.13
2022-12-04T19:59:47.050Z,103114.25
2022-12-04T20:02:15.908Z,103113.38
2022-12-04T20:04:44.471Z,103118.66
2022-12-04T20:07:13.181Z,103100.19
2022-12-04T20:09:41.304Z,103114.25
2022-12-04T20:12:12.250Z,103119.53
2022-12-04T20:14:40.991Z,103121.34
2022-12-04T20:17:09.695Z,103122.22
2022-12-04T20:19:38.163Z,103126.72
2022-12-04T20:22:06.303Z,103117.88
2022-12-04T20:24:34.519Z,103122.22
2022-12-04T20:27:03.249Z,103115.03
2022-12-04T20:29:33.728Z,103116.81
2022-12-04T20:32:02.935Z,103109.16
2022-12-04T20:34:31.356Z,103115.13
2022-12-04T20:37:00.111Z,103126.72
2022-12-04T20:39:28.350Z,103112.34
2022-12-04T20:41:56.430Z,103111.47
2022-12-04T20:44:24.380Z,103114.16
2022-12-04T20:46:53.764Z,103109.69
2022-12-04T20:49:22.631Z,103105.19
2022-12-04T20:51:52.234Z,103105.97
2022-12-04T20:54:22.208Z,103101.47
2022-12-04T20:56:52.891Z,103100.56
2022-12-04T20:59:23.306Z,103095.22
2022-12-04T21:01:51.709Z,103092.63
2022-12-04T21:04:21.949Z,103090.94
2022-12-04T21:06:50.162Z,103091.63
2022-12-04T21:09:20.581Z,103096.09
2022-12-04T21:11:50.231Z,103090.72
2022-12-04T21:14:38.036Z,103094.31
2022-12-04T21:17:09.651Z,103087.25
2022-12-04T21:19:39.303Z,103071.13
2022-12-04T21:22:07.384Z,103090.72
2022-12-04T21:24:38.685Z,103073.72
2022-12-04T21:27:07.883Z,103067.59
2022-12-04T21:29:36.350Z,103082.66
2022-12-04T21:32:05.523Z,103086.25
2022-12-04T21:34:34.302Z,103080.88
2022-12-04T21:37:03.695Z,103096.03
2022-12-04T21:39:31.637Z,103107.75
2022-12-04T21:42:17.075Z,103085.34
2022-12-04T21:44:45.283Z,103090.78
2022-12-04T21:47:13.255Z,103090.78
2022-12-04T21:49:41.186Z,103093.47
2022-12-04T21:52:10.463Z,103086.34
2022-12-04T21:54:38.552Z,103077.34
2022-12-04T21:57:06.474Z,103073.72
2022-12-04T21:59:34.754Z,103091.66
2022-12-04T22:02:03.063Z,103082.13
2022-12-04T22:04:31.121Z,103081.00
2022-12-04T22:06:59.019Z,103089.09
2022-12-04T22:09:28.400Z,103088.25
2022-12-04T22:11:56.380Z,103090.06
2022-12-04T22:14:24.434Z,103082.00
2022-12-04T22:16:54.204Z,103079.38
2022-12-04T22:19:22.476Z,103082.00
2022-12-04T22:21:50.507Z,103073.94
2022-12-04T22:24:18.646Z,103074.81
2022-12-04T22:26:48.054Z,103066.81
2022-12-04T22:29:48.624Z,103065.00
2022-12-04T22:32:04.057Z,103063.31
2022-12-04T22:34:32.022Z,103071.38
2022-12-04T22:36:59.903Z,103067.81
2022-12-04T22:39:27.907Z,103064.25
2022-12-04T22:41:57.214Z,103071.38
2022-12-04T22:44:25.091Z,103056.50
2022-12-04T22:46:53.104Z,103065.22
2022-12-04T22:49:21.244Z,103074.94
2022-12-04T22:51:49.184Z,103056.69
2022-12-04T22:54:17.062Z,103070.38
2022-12-04T22:56:45.213Z,103069.56
2022-12-04T22:59:14.476Z,103076.69
2022-12-04T23:01:42.407Z,103070.50
2022-12-04T23:04:10.860Z,103074.94
2022-12-04T23:06:38.789Z,103071.31
2022-12-04T23:09:08.862Z,103049.59
2022-12-04T23:11:37.728Z,103073.06
2022-12-04T23:14:08.672Z,103067.69
2022-12-04T23:16:39.601Z,103068.63
2022-12-04T23:19:09.086Z,103064.19
2022-12-04T23:21:37.035Z,103068.78
2022-12-04T23:24:05.381Z,103057.94
2022-12-04T23:26:36.365Z,103064.13
2022-12-04T23:29:17.837Z,103067.78
2022-12-04T23:31:52.973Z,103060.72
2022-12-04T23:34:20.844Z,103065.22
2022-12-04T23:36:48.853Z,103058.09
2022-12-04T23:39:16.735Z,103058.22
2022-12-04T23:41:44.628Z,103059.09
2022-12-04T23:44:12.524Z,103018.06
2022-12-04T23:46:40.959Z,103057.22
2022-12-04T23:49:10.412Z,103054.53
2022-12-04T23:51:38.320Z,103052.72
2022-12-04T23:54:06.298Z,103052.84
2022-12-04T23:56:34.321Z,103044.72
2022-12-04T23:59:02.292Z,103052.72
